< < Back
Terminal Aerodrome Forecast


Current Version              Previous Versions:   1  2  3  4  5  6  7  8  9  

Terminal Aerodrome Forecast

808
FTUS42 KTAE 180539
TAFVLD
TAF
KVLD 180539Z 1806/1906 16004KT P6SM BKN060
     FM180900 00000KT 2SM BR OVC003
     FM181400 22003KT P6SM OVC010
     FM182100 22010KT P6SM VCTS OVC050CB
     FM190000 20004KT P6SM -RA SCT025 OVC050=



Latest METAR

689
SAUS70 KWBC 181500
MTRVLD
METAR KVLD 181453Z VRB04KT 10SM SCT014 BKN020 26/22 A2999 RMK AO2 SLP160
60001 T02560217 53010


USA.gov is the U.S. government's official web portal to all federal, state and local government web resources and services.